sensor_id;sensor_type;location;lat;lon;timestamp;P1;durP1;ratioP1;P2;durP2;ratioP2
2434;SDS011;1228;51.022;6.764;2022-07-23T00:02:19;39.10;;;26.50;;
2434;SDS011;1228;51.022;6.764;2022-07-23T00:04:44;47.43;;;27.13;;
2434;SDS011;1228;51.022;6.764;2022-07-23T00:07:10;40.83;;;27.30;;
2434;SDS011;1228;51.022;6.764;2022-07-23T00:09:36;41.60;;;27.30;;
2434;SDS011;1228;51.022;6.764;2022-07-23T00:12:01;46.10;;;30.30;;
2434;SDS011;1228;51.022;6.764;2022-07-23T00:14:27;42.43;;;28.60;;
2434;SDS011;1228;51.022;6.764;2022-07-23T00:16:52;46.00;;;27.57;;
2434;SDS011;1228;51.022;6.764;2022-07-23T00:19:18;45.03;;;28.83;;
2434;SDS011;1228;51.022;6.764;2022-07-23T00:21:43;45.33;;;29.17;;
2434;SDS011;1228;51.022;6.764;2022-07-23T00:24:09;49.57;;;29.50;;
2434;SDS011;1228;51.022;6.764;2022-07-23T00:26:35;46.53;;;30.17;;
2434;SDS011;1228;51.022;6.764;2022-07-23T00:29:00;48.43;;;29.83;;
2434;SDS011;1228;51.022;6.764;2022-07-23T00:31:26;47.50;;;29.23;;
2434;SDS011;1228;51.022;6.764;2022-07-23T00:33:52;50.13;;;29.30;;
2434;SDS011;1228;51.022;6.764;2022-07-23T00:36:21;52.73;;;34.63;;
2434;SDS011;1228;51.022;6.764;2022-07-23T00:38:48;53.57;;;35.47;;
2434;SDS011;1228;51.022;6.764;2022-07-23T00:41:14;55.07;;;36.47;;
2434;SDS011;1228;51.022;6.764;2022-07-23T00:43:40;54.77;;;33.07;;
2434;SDS011;1228;51.022;6.764;2022-07-23T00:46:05;50.57;;;31.50;;
2434;SDS011;1228;51.022;6.764;2022-07-23T00:48:31;53.17;;;32.53;;
2434;SDS011;1228;51.022;6.764;2022-07-23T00:50:57;55.87;;;32.07;;
2434;SDS011;1228;51.022;6.764;2022-07-23T00:53:22;52.33;;;32.77;;
2434;SDS011;1228;51.022;6.764;2022-07-23T00:55:48;63.17;;;35.47;;
2434;SDS011;1228;51.022;6.764;2022-07-23T00:58:14;69.73;;;37.17;;
2434;SDS011;1228;51.022;6.764;2022-07-23T01:00:41;63.60;;;36.43;;
2434;SDS011;1228;51.022;6.764;2022-07-23T01:03:07;67.70;;;35.53;;
2434;SDS011;1228;51.022;6.764;2022-07-23T01:05:33;62.40;;;36.50;;
2434;SDS011;1228;51.022;6.764;2022-07-23T01:07:59;62.07;;;35.53;;
2434;SDS011;1228;51.022;6.764;2022-07-23T01:10:25;64.20;;;35.37;;
2434;SDS011;1228;51.022;6.764;2022-07-23T01:12:57;64.67;;;36.87;;
2434;SDS011;1228;51.022;6.764;2022-07-23T01:15:24;66.27;;;36.00;;
2434;SDS011;1228;51.022;6.764;2022-07-23T01:17:50;58.27;;;36.03;;
2434;SDS011;1228;51.022;6.764;2022-07-23T01:20:16;72.20;;;37.60;;
2434;SDS011;1228;51.022;6.764;2022-07-23T01:22:42;65.83;;;34.63;;
2434;SDS011;1228;51.022;6.764;2022-07-23T01:25:08;66.10;;;35.40;;
2434;SDS011;1228;51.022;6.764;2022-07-23T01:27:34;62.73;;;34.13;;
2434;SDS011;1228;51.022;6.764;2022-07-23T01:30:00;58.47;;;32.13;;
2434;SDS011;1228;51.022;6.764;2022-07-23T01:32:27;56.27;;;34.23;;
2434;SDS011;1228;51.022;6.764;2022-07-23T01:34:53;66.30;;;34.60;;
2434;SDS011;1228;51.022;6.764;2022-07-23T01:37:19;74.53;;;36.77;;
2434;SDS011;1228;51.022;6.764;2022-07-23T01:39:44;59.40;;;32.67;;
2434;SDS011;1228;51.022;6.764;2022-07-23T01:42:10;63.57;;;33.87;;
2434;SDS011;1228;51.022;6.764;2022-07-23T01:44:35;62.63;;;34.70;;
2434;SDS011;1228;51.022;6.764;2022-07-23T01:47:01;61.00;;;33.03;;
2434;SDS011;1228;51.022;6.764;2022-07-23T01:49:27;79.43;;;35.90;;
2434;SDS011;1228;51.022;6.764;2022-07-23T01:51:52;80.63;;;38.50;;
2434;SDS011;1228;51.022;6.764;2022-07-23T01:54:31;66.40;;;36.43;;
2434;SDS011;1228;51.022;6.764;2022-07-23T01:56:58;74.97;;;41.10;;
2434;SDS011;1228;51.022;6.764;2022-07-23T01:59:25;76.93;;;38.83;;
2434;SDS011;1228;51.022;6.764;2022-07-23T02:01:51;87.93;;;38.67;;
2434;SDS011;1228;51.022;6.764;2022-07-23T02:04:17;94.93;;;39.80;;
2434;SDS011;1228;51.022;6.764;2022-07-23T02:06:47;83.40;;;36.50;;
2434;SDS011;1228;51.022;6.764;2022-07-23T02:09:12;73.53;;;37.33;;
2434;SDS011;1228;51.022;6.764;2022-07-23T02:11:38;80.23;;;38.27;;
2434;SDS011;1228;51.022;6.764;2022-07-23T02:14:04;80.53;;;38.50;;
2434;SDS011;1228;51.022;6.764;2022-07-23T02:16:29;81.00;;;39.17;;
2434;SDS011;1228;51.022;6.764;2022-07-23T02:18:55;77.20;;;39.20;;
2434;SDS011;1228;51.022;6.764;2022-07-23T02:21:20;83.70;;;37.70;;
2434;SDS011;1228;51.022;6.764;2022-07-23T02:23:46;79.93;;;43.47;;
2434;SDS011;1228;51.022;6.764;2022-07-23T02:26:12;88.17;;;42.57;;
2434;SDS011;1228;51.022;6.764;2022-07-23T02:28:38;95.43;;;42.97;;
2434;SDS011;1228;51.022;6.764;2022-07-23T02:31:03;83.67;;;41.47;;
2434;SDS011;1228;51.022;6.764;2022-07-23T02:33:30;87.67;;;39.30;;
2434;SDS011;1228;51.022;6.764;2022-07-23T02:35:56;99.33;;;42.43;;
2434;SDS011;1228;51.022;6.764;2022-07-23T02:38:21;92.30;;;41.63;;
2434;SDS011;1228;51.022;6.764;2022-07-23T02:40:47;87.63;;;42.13;;
2434;SDS011;1228;51.022;6.764;2022-07-23T02:43:12;103.60;;;42.20;;
2434;SDS011;1228;51.022;6.764;2022-07-23T02:45:38;104.87;;;42.90;;
2434;SDS011;1228;51.022;6.764;2022-07-23T02:48:03;123.60;;;46.80;;
2434;SDS011;1228;51.022;6.764;2022-07-23T02:50:29;105.03;;;43.27;;
2434;SDS011;1228;51.022;6.764;2022-07-23T02:52:55;102.97;;;42.77;;
2434;SDS011;1228;51.022;6.764;2022-07-23T02:55:20;108.70;;;46.27;;
2434;SDS011;1228;51.022;6.764;2022-07-23T02:57:46;97.00;;;40.17;;
2434;SDS011;1228;51.022;6.764;2022-07-23T03:00:12;111.53;;;44.60;;
2434;SDS011;1228;51.022;6.764;2022-07-23T03:02:38;99.07;;;41.03;;
2434;SDS011;1228;51.022;6.764;2022-07-23T03:05:03;102.50;;;43.30;;
2434;SDS011;1228;51.022;6.764;2022-07-23T03:07:29;115.37;;;44.00;;
2434;SDS011;1228;51.022;6.764;2022-07-23T03:09:55;124.57;;;45.00;;
2434;SDS011;1228;51.022;6.764;2022-07-23T03:12:20;115.57;;;43.23;;
2434;SDS011;1228;51.022;6.764;2022-07-23T03:14:46;114.30;;;43.97;;
2434;SDS011;1228;51.022;6.764;2022-07-23T03:17:12;124.17;;;44.27;;
2434;SDS011;1228;51.022;6.764;2022-07-23T03:19:37;110.87;;;42.40;;
2434;SDS011;1228;51.022;6.764;2022-07-23T03:22:03;108.03;;;42.03;;
2434;SDS011;1228;51.022;6.764;2022-07-23T03:24:29;110.07;;;42.17;;
2434;SDS011;1228;51.022;6.764;2022-07-23T03:27:13;117.60;;;42.07;;
2434;SDS011;1228;51.022;6.764;2022-07-23T03:29:39;109.80;;;41.77;;
2434;SDS011;1228;51.022;6.764;2022-07-23T03:32:05;106.83;;;41.63;;
2434;SDS011;1228;51.022;6.764;2022-07-23T03:34:31;125.47;;;42.60;;
2434;SDS011;1228;51.022;6.764;2022-07-23T03:36:56;109.50;;;41.10;;
2434;SDS011;1228;51.022;6.764;2022-07-23T03:39:22;119.03;;;42.90;;
2434;SDS011;1228;51.022;6.764;2022-07-23T03:41:47;111.30;;;42.70;;
2434;SDS011;1228;51.022;6.764;2022-07-23T03:44:13;116.20;;;41.03;;
2434;SDS011;1228;51.022;6.764;2022-07-23T03:46:39;109.60;;;42.70;;
2434;SDS011;1228;51.022;6.764;2022-07-23T03:49:04;113.40;;;40.90;;
2434;SDS011;1228;51.022;6.764;2022-07-23T03:51:30;116.30;;;41.93;;
2434;SDS011;1228;51.022;6.764;2022-07-23T03:53:55;106.13;;;39.47;;
2434;SDS011;1228;51.022;6.764;2022-07-23T03:56:21;117.87;;;41.27;;
2434;SDS011;1228;51.022;6.764;2022-07-23T03:58:47;107.47;;;40.57;;
2434;SDS011;1228;51.022;6.764;2022-07-23T04:01:13;102.30;;;40.80;;
2434;SDS011;1228;51.022;6.764;2022-07-23T04:03:38;100.60;;;39.23;;
2434;SDS011;1228;51.022;6.764;2022-07-23T04:06:04;103.47;;;41.80;;
2434;SDS011;1228;51.022;6.764;2022-07-23T04:08:30;84.13;;;39.10;;
2434;SDS011;1228;51.022;6.764;2022-07-23T04:10:56;84.73;;;38.13;;
2434;SDS011;1228;51.022;6.764;2022-07-23T04:13:22;86.20;;;39.30;;
2434;SDS011;1228;51.022;6.764;2022-07-23T04:15:47;77.67;;;37.47;;
2434;SDS011;1228;51.022;6.764;2022-07-23T04:18:14;81.93;;;37.10;;
2434;SDS011;1228;51.022;6.764;2022-07-23T04:20:42;79.23;;;37.90;;
2434;SDS011;1228;51.022;6.764;2022-07-23T04:23:08;78.23;;;36.77;;
2434;SDS011;1228;51.022;6.764;2022-07-23T04:25:34;77.50;;;38.83;;
2434;SDS011;1228;51.022;6.764;2022-07-23T04:28:00;70.93;;;34.80;;
2434;SDS011;1228;51.022;6.764;2022-07-23T04:30:26;68.53;;;34.57;;
2434;SDS011;1228;51.022;6.764;2022-07-23T04:32:51;72.77;;;35.37;;
2434;SDS011;1228;51.022;6.764;2022-07-23T04:35:17;74.10;;;35.83;;
2434;SDS011;1228;51.022;6.764;2022-07-23T04:37:42;74.00;;;36.30;;
2434;SDS011;1228;51.022;6.764;2022-07-23T04:40:08;82.27;;;37.27;;
2434;SDS011;1228;51.022;6.764;2022-07-23T04:42:34;78.67;;;33.00;;
2434;SDS011;1228;51.022;6.764;2022-07-23T04:45:00;74.87;;;33.17;;
2434;SDS011;1228;51.022;6.764;2022-07-23T04:47:25;63.93;;;33.10;;
2434;SDS011;1228;51.022;6.764;2022-07-23T04:49:51;66.00;;;32.40;;
2434;SDS011;1228;51.022;6.764;2022-07-23T04:52:17;79.00;;;32.80;;
2434;SDS011;1228;51.022;6.764;2022-07-23T04:54:42;90.90;;;33.83;;
2434;SDS011;1228;51.022;6.764;2022-07-23T04:57:08;75.10;;;33.07;;
2434;SDS011;1228;51.022;6.764;2022-07-23T04:59:33;73.73;;;33.63;;
2434;SDS011;1228;51.022;6.764;2022-07-23T05:01:59;77.60;;;34.83;;
2434;SDS011;1228;51.022;6.764;2022-07-23T05:04:24;68.83;;;35.53;;
2434;SDS011;1228;51.022;6.764;2022-07-23T05:06:50;67.10;;;35.30;;
2434;SDS011;1228;51.022;6.764;2022-07-23T05:09:16;62.97;;;33.90;;
2434;SDS011;1228;51.022;6.764;2022-07-23T05:11:41;68.17;;;35.03;;
2434;SDS011;1228;51.022;6.764;2022-07-23T05:14:07;65.13;;;33.50;;
2434;SDS011;1228;51.022;6.764;2022-07-23T05:16:32;70.30;;;33.87;;
2434;SDS011;1228;51.022;6.764;2022-07-23T05:18:58;65.63;;;33.63;;
2434;SDS011;1228;51.022;6.764;2022-07-23T05:21:23;63.60;;;34.10;;
2434;SDS011;1228;51.022;6.764;2022-07-23T05:23:49;61.23;;;33.43;;
2434;SDS011;1228;51.022;6.764;2022-07-23T05:26:14;54.73;;;31.13;;
2434;SDS011;1228;51.022;6.764;2022-07-23T05:28:46;54.27;;;31.77;;
2434;SDS011;1228;51.022;6.764;2022-07-23T05:31:20;52.20;;;31.50;;
2434;SDS011;1228;51.022;6.764;2022-07-23T05:33:46;60.90;;;34.37;;
2434;SDS011;1228;51.022;6.764;2022-07-23T05:36:12;58.97;;;31.73;;
2434;SDS011;1228;51.022;6.764;2022-07-23T05:38:37;56.63;;;34.70;;
2434;SDS011;1228;51.022;6.764;2022-07-23T05:41:03;59.27;;;37.37;;
2434;SDS011;1228;51.022;6.764;2022-07-23T05:43:28;54.33;;;31.17;;
2434;SDS011;1228;51.022;6.764;2022-07-23T05:45:54;49.00;;;28.77;;
2434;SDS011;1228;51.022;6.764;2022-07-23T05:48:20;47.10;;;31.23;;
2434;SDS011;1228;51.022;6.764;2022-07-23T05:50:46;52.40;;;29.90;;
2434;SDS011;1228;51.022;6.764;2022-07-23T05:53:12;50.90;;;30.47;;
2434;SDS011;1228;51.022;6.764;2022-07-23T05:55:38;39.90;;;26.43;;
2434;SDS011;1228;51.022;6.764;2022-07-23T05:58:04;44.13;;;26.50;;
2434;SDS011;1228;51.022;6.764;2022-07-23T06:00:30;34.63;;;25.13;;
2434;SDS011;1228;51.022;6.764;2022-07-23T06:02:56;37.13;;;25.90;;
2434;SDS011;1228;51.022;6.764;2022-07-23T06:05:21;36.03;;;22.80;;
2434;SDS011;1228;51.022;6.764;2022-07-23T06:07:47;38.80;;;23.83;;
2434;SDS011;1228;51.022;6.764;2022-07-23T06:10:13;32.10;;;23.50;;
2434;SDS011;1228;51.022;6.764;2022-07-23T06:12:39;27.33;;;24.50;;
2434;SDS011;1228;51.022;6.764;2022-07-23T06:15:04;24.33;;;19.27;;
2434;SDS011;1228;51.022;6.764;2022-07-23T06:17:30;19.27;;;16.53;;
2434;SDS011;1228;51.022;6.764;2022-07-23T06:19:56;23.00;;;16.83;;
2434;SDS011;1228;51.022;6.764;2022-07-23T06:22:22;19.40;;;17.00;;
2434;SDS011;1228;51.022;6.764;2022-07-23T06:24:48;21.00;;;14.70;;
2434;SDS011;1228;51.022;6.764;2022-07-23T06:27:14;21.93;;;17.83;;
2434;SDS011;1228;51.022;6.764;2022-07-23T06:29:40;20.40;;;18.40;;
2434;SDS011;1228;51.022;6.764;2022-07-23T06:32:06;16.47;;;14.77;;
2434;SDS011;1228;51.022;6.764;2022-07-23T06:34:32;22.00;;;17.13;;
2434;SDS011;1228;51.022;6.764;2022-07-23T06:36:59;21.83;;;15.83;;
2434;SDS011;1228;51.022;6.764;2022-07-23T06:39:25;17.67;;;13.73;;
2434;SDS011;1228;51.022;6.764;2022-07-23T06:41:51;17.17;;;14.87;;
2434;SDS011;1228;51.022;6.764;2022-07-23T06:44:16;15.50;;;14.00;;
2434;SDS011;1228;51.022;6.764;2022-07-23T06:46:42;18.60;;;14.73;;
2434;SDS011;1228;51.022;6.764;2022-07-23T06:49:08;16.10;;;14.50;;
2434;SDS011;1228;51.022;6.764;2022-07-23T06:51:34;21.00;;;17.65;;
2434;SDS011;1228;51.022;6.764;2022-07-23T06:53:59;19.20;;;17.35;;
2434;SDS011;1228;51.022;6.764;2022-07-23T06:56:25;15.15;;;13.50;;
2434;SDS011;1228;51.022;6.764;2022-07-23T06:58:51;18.30;;;16.60;;
2434;SDS011;1228;51.022;6.764;2022-07-23T07:01:17;22.58;;;15.40;;
2434;SDS011;1228;51.022;6.764;2022-07-23T07:03:43;14.50;;;12.88;;
2434;SDS011;1228;51.022;6.764;2022-07-23T07:06:08;14.98;;;13.48;;
2434;SDS011;1228;51.022;6.764;2022-07-23T07:08:34;19.75;;;17.98;;
2434;SDS011;1228;51.022;6.764;2022-07-23T07:10:59;21.05;;;19.13;;
2434;SDS011;1228;51.022;6.764;2022-07-23T07:13:25;15.57;;;14.00;;
2434;SDS011;1228;51.022;6.764;2022-07-23T07:15:50;16.25;;;13.80;;
2434;SDS011;1228;51.022;6.764;2022-07-23T07:18:16;15.45;;;12.88;;
2434;SDS011;1228;51.022;6.764;2022-07-23T07:20:42;14.15;;;12.38;;
2434;SDS011;1228;51.022;6.764;2022-07-23T07:23:08;14.98;;;12.00;;
2434;SDS011;1228;51.022;6.764;2022-07-23T07:25:33;16.35;;;12.95;;
2434;SDS011;1228;51.022;6.764;2022-07-23T07:27:59;14.93;;;12.82;;
2434;SDS011;1228;51.022;6.764;2022-07-23T07:30:25;19.40;;;17.07;;
2434;SDS011;1228;51.022;6.764;2022-07-23T07:32:50;21.05;;;17.00;;
2434;SDS011;1228;51.022;6.764;2022-07-23T07:35:16;17.67;;;15.20;;
2434;SDS011;1228;51.022;6.764;2022-07-23T07:37:42;16.75;;;14.10;;
2434;SDS011;1228;51.022;6.764;2022-07-23T07:40:08;21.40;;;13.60;;
2434;SDS011;1228;51.022;6.764;2022-07-23T07:42:34;16.38;;;13.15;;
2434;SDS011;1228;51.022;6.764;2022-07-23T07:44:59;18.60;;;14.15;;
2434;SDS011;1228;51.022;6.764;2022-07-23T07:47:25;20.65;;;15.45;;
2434;SDS011;1228;51.022;6.764;2022-07-23T07:49:51;19.92;;;17.27;;
2434;SDS011;1228;51.022;6.764;2022-07-23T07:52:16;20.45;;;15.85;;
2434;SDS011;1228;51.022;6.764;2022-07-23T07:54:42;19.70;;;16.10;;
2434;SDS011;1228;51.022;6.764;2022-07-23T07:57:08;21.60;;;17.60;;
2434;SDS011;1228;51.022;6.764;2022-07-23T07:59:34;24.38;;;17.25;;
2434;SDS011;1228;51.022;6.764;2022-07-23T08:02:00;23.02;;;19.17;;
2434;SDS011;1228;51.022;6.764;2022-07-23T08:04:26;22.77;;;16.98;;
2434;SDS011;1228;51.022;6.764;2022-07-23T08:06:52;20.17;;;15.80;;
2434;SDS011;1228;51.022;6.764;2022-07-23T08:09:18;18.67;;;14.90;;
2434;SDS011;1228;51.022;6.764;2022-07-23T08:11:43;21.05;;;18.85;;
2434;SDS011;1228;51.022;6.764;2022-07-23T08:14:09;16.08;;;14.40;;
2434;SDS011;1228;51.022;6.764;2022-07-23T08:16:36;16.95;;;13.73;;
2434;SDS011;1228;51.022;6.764;2022-07-23T08:19:01;15.23;;;13.30;;
2434;SDS011;1228;51.022;6.764;2022-07-23T08:21:27;16.20;;;12.77;;
2434;SDS011;1228;51.022;6.764;2022-07-23T08:23:53;20.70;;;14.45;;
2434;SDS011;1228;51.022;6.764;2022-07-23T08:26:18;18.50;;;12.77;;
2434;SDS011;1228;51.022;6.764;2022-07-23T08:28:44;17.20;;;12.98;;
2434;SDS011;1228;51.022;6.764;2022-07-23T08:31:09;16.67;;;12.15;;
2434;SDS011;1228;51.022;6.764;2022-07-23T08:33:36;12.45;;;11.15;;
2434;SDS011;1228;51.022;6.764;2022-07-23T08:36:02;15.85;;;11.50;;
2434;SDS011;1228;51.022;6.764;2022-07-23T08:38:28;12.57;;;8.93;;
2434;SDS011;1228;51.022;6.764;2022-07-23T08:40:54;11.57;;;10.40;;
2434;SDS011;1228;51.022;6.764;2022-07-23T08:43:29;13.57;;;10.68;;
2434;SDS011;1228;51.022;6.764;2022-07-23T08:45:57;13.05;;;10.82;;
2434;SDS011;1228;51.022;6.764;2022-07-23T08:48:25;14.10;;;11.77;;
2434;SDS011;1228;51.022;6.764;2022-07-23T08:50:53;13.98;;;11.15;;
2434;SDS011;1228;51.022;6.764;2022-07-23T08:53:20;14.55;;;9.80;;
2434;SDS011;1228;51.022;6.764;2022-07-23T08:55:49;13.02;;;11.60;;
2434;SDS011;1228;51.022;6.764;2022-07-23T08:58:16;13.75;;;11.68;;
2434;SDS011;1228;51.022;6.764;2022-07-23T09:00:42;12.27;;;10.98;;
2434;SDS011;1228;51.022;6.764;2022-07-23T09:03:16;14.30;;;11.20;;
2434;SDS011;1228;51.022;6.764;2022-07-23T09:05:44;11.20;;;9.98;;
2434;SDS011;1228;51.022;6.764;2022-07-23T09:15:53;10.73;;;9.63;;
2434;SDS011;1228;51.022;6.764;2022-07-23T09:21:07;15.43;;;9.77;;
2434;SDS011;1228;51.022;6.764;2022-07-23T09:24:00;11.02;;;9.18;;
2434;SDS011;1228;51.022;6.764;2022-07-23T09:26:46;12.25;;;9.60;;
2434;SDS011;1228;51.022;6.764;2022-07-23T09:29:17;11.20;;;9.98;;
2434;SDS011;1228;51.022;6.764;2022-07-23T09:31:50;9.55;;;8.05;;
2434;SDS011;1228;51.022;6.764;2022-07-23T09:34:20;15.82;;;9.38;;
2434;SDS011;1228;51.022;6.764;2022-07-23T09:39:42;10.98;;;8.35;;
2434;SDS011;1228;51.022;6.764;2022-07-23T09:44:42;9.30;;;7.95;;
2434;SDS011;1228;51.022;6.764;2022-07-23T09:47:09;12.63;;;8.75;;
2434;SDS011;1228;51.022;6.764;2022-07-23T09:49:35;9.75;;;8.70;;
2434;SDS011;1228;51.022;6.764;2022-07-23T09:52:00;9.48;;;8.57;;
2434;SDS011;1228;51.022;6.764;2022-07-23T09:54:28;8.52;;;7.72;;
2434;SDS011;1228;51.022;6.764;2022-07-23T09:57:05;9.95;;;8.48;;
2434;SDS011;1228;51.022;6.764;2022-07-23T09:59:36;9.55;;;8.52;;
2434;SDS011;1228;51.022;6.764;2022-07-23T10:02:03;7.90;;;6.82;;
2434;SDS011;1228;51.022;6.764;2022-07-23T10:04:31;10.73;;;8.38;;
2434;SDS011;1228;51.022;6.764;2022-07-23T10:06:59;9.10;;;8.20;;
2434;SDS011;1228;51.022;6.764;2022-07-23T10:09:27;11.65;;;8.48;;
2434;SDS011;1228;51.022;6.764;2022-07-23T10:11:58;7.30;;;6.68;;
2434;SDS011;1228;51.022;6.764;2022-07-23T10:14:34;7.75;;;6.40;;
2434;SDS011;1228;51.022;6.764;2022-07-23T10:17:01;7.78;;;6.97;;
2434;SDS011;1228;51.022;6.764;2022-07-23T10:19:27;6.90;;;6.20;;
2434;SDS011;1228;51.022;6.764;2022-07-23T10:22:01;7.53;;;6.88;;
2434;SDS011;1228;51.022;6.764;2022-07-23T10:24:30;7.90;;;7.10;;
2434;SDS011;1228;51.022;6.764;2022-07-23T10:27:29;8.25;;;7.38;;
2434;SDS011;1228;51.022;6.764;2022-07-23T10:30:12;8.32;;;7.63;;
2434;SDS011;1228;51.022;6.764;2022-07-23T10:38:30;6.80;;;6.20;;
2434;SDS011;1228;51.022;6.764;2022-07-23T10:41:03;6.80;;;6.10;;
2434;SDS011;1228;51.022;6.764;2022-07-23T10:43:30;6.40;;;5.90;;
2434;SDS011;1228;51.022;6.764;2022-07-23T10:46:20;9.27;;;6.43;;
2434;SDS011;1228;51.022;6.764;2022-07-23T10:48:50;7.30;;;6.57;;
2434;SDS011;1228;51.022;6.764;2022-07-23T10:57:10;6.68;;;6.07;;
2434;SDS011;1228;51.022;6.764;2022-07-23T11:02:37;5.85;;;5.22;;
2434;SDS011;1228;51.022;6.764;2022-07-23T11:05:06;5.43;;;4.93;;
2434;SDS011;1228;51.022;6.764;2022-07-23T11:07:33;4.95;;;4.47;;
2434;SDS011;1228;51.022;6.764;2022-07-23T11:10:00;5.88;;;5.38;;
2434;SDS011;1228;51.022;6.764;2022-07-23T11:15:11;6.28;;;5.32;;
2434;SDS011;1228;51.022;6.764;2022-07-23T11:17:58;5.30;;;4.78;;
2434;SDS011;1228;51.022;6.764;2022-07-23T11:20:25;6.00;;;5.00;;
2434;SDS011;1228;51.022;6.764;2022-07-23T11:22:54;4.93;;;4.43;;
2434;SDS011;1228;51.022;6.764;2022-07-23T11:27:55;6.07;;;4.85;;
2434;SDS011;1228;51.022;6.764;2022-07-23T11:30:38;4.40;;;3.88;;
2434;SDS011;1228;51.022;6.764;2022-07-23T11:35:37;4.68;;;4.28;;
2434;SDS011;1228;51.022;6.764;2022-07-23T11:38:06;6.32;;;4.60;;
2434;SDS011;1228;51.022;6.764;2022-07-23T11:40:36;6.65;;;4.30;;
2434;SDS011;1228;51.022;6.764;2022-07-23T11:43:11;6.00;;;4.53;;
2434;SDS011;1228;51.022;6.764;2022-07-23T11:45:48;4.70;;;4.35;;
2434;SDS011;1228;51.022;6.764;2022-07-23T11:48:24;5.30;;;4.80;;
2434;SDS011;1228;51.022;6.764;2022-07-23T11:50:52;4.43;;;4.13;;
2434;SDS011;1228;51.022;6.764;2022-07-23T11:53:22;4.28;;;3.97;;
2434;SDS011;1228;51.022;6.764;2022-07-23T11:55:52;4.60;;;4.20;;
2434;SDS011;1228;51.022;6.764;2022-07-23T11:58:20;4.40;;;4.03;;
2434;SDS011;1228;51.022;6.764;2022-07-23T12:00:46;3.95;;;3.45;;
2434;SDS011;1228;51.022;6.764;2022-07-23T12:03:12;4.00;;;3.72;;
2434;SDS011;1228;51.022;6.764;2022-07-23T12:05:38;4.63;;;3.67;;
2434;SDS011;1228;51.022;6.764;2022-07-23T12:08:05;3.85;;;3.55;;
2434;SDS011;1228;51.022;6.764;2022-07-23T12:10:40;3.95;;;3.65;;
2434;SDS011;1228;51.022;6.764;2022-07-23T12:13:08;5.13;;;4.55;;
2434;SDS011;1228;51.022;6.764;2022-07-23T12:15:46;4.68;;;4.28;;
2434;SDS011;1228;51.022;6.764;2022-07-23T12:18:30;4.40;;;3.75;;
2434;SDS011;1228;51.022;6.764;2022-07-23T12:21:02;4.30;;;3.55;;
2434;SDS011;1228;51.022;6.764;2022-07-23T12:23:29;5.13;;;3.70;;
2434;SDS011;1228;51.022;6.764;2022-07-23T12:25:54;3.80;;;3.50;;
2434;SDS011;1228;51.022;6.764;2022-07-23T12:28:31;4.13;;;3.83;;
2434;SDS011;1228;51.022;6.764;2022-07-23T12:30:58;3.40;;;3.20;;
2434;SDS011;1228;51.022;6.764;2022-07-23T12:33:25;4.35;;;3.95;;
2434;SDS011;1228;51.022;6.764;2022-07-23T12:35:54;4.30;;;3.90;;
2434;SDS011;1228;51.022;6.764;2022-07-23T12:38:21;4.07;;;3.78;;
2434;SDS011;1228;51.022;6.764;2022-07-23T12:43:23;4.63;;;4.22;;
2434;SDS011;1228;51.022;6.764;2022-07-23T12:56:17;5.22;;;3.90;;
2434;SDS011;1228;51.022;6.764;2022-07-23T12:58:52;4.68;;;4.28;;
2434;SDS011;1228;51.022;6.764;2022-07-23T13:06:44;4.32;;;3.92;;
2434;SDS011;1228;51.022;6.764;2022-07-23T13:09:13;4.40;;;4.00;;
2434;SDS011;1228;51.022;6.764;2022-07-23T13:11:41;4.40;;;3.97;;
2434;SDS011;1228;51.022;6.764;2022-07-23T13:14:08;4.38;;;4.05;;
2434;SDS011;1228;51.022;6.764;2022-07-23T13:16:34;4.13;;;3.80;;
2434;SDS011;1228;51.022;6.764;2022-07-23T13:19:00;4.13;;;3.83;;
2434;SDS011;1228;51.022;6.764;2022-07-23T13:21:27;4.50;;;4.18;;
2434;SDS011;1228;51.022;6.764;2022-07-23T13:23:53;4.65;;;4.25;;
2434;SDS011;1228;51.022;6.764;2022-07-23T13:26:19;4.45;;;4.15;;
2434;SDS011;1228;51.022;6.764;2022-07-23T13:28:45;4.15;;;3.75;;
2434;SDS011;1228;51.022;6.764;2022-07-23T13:31:11;5.32;;;4.68;;
2434;SDS011;1228;51.022;6.764;2022-07-23T13:33:37;5.00;;;4.60;;
2434;SDS011;1228;51.022;6.764;2022-07-23T13:36:03;3.90;;;3.60;;
2434;SDS011;1228;51.022;6.764;2022-07-23T13:38:29;4.10;;;3.78;;
2434;SDS011;1228;51.022;6.764;2022-07-23T13:40:55;4.10;;;3.72;;
2434;SDS011;1228;51.022;6.764;2022-07-23T13:43:21;4.00;;;3.80;;
2434;SDS011;1228;51.022;6.764;2022-07-23T13:45:48;4.30;;;3.90;;
2434;SDS011;1228;51.022;6.764;2022-07-23T13:48:15;4.50;;;4.03;;
2434;SDS011;1228;51.022;6.764;2022-07-23T13:50:42;4.65;;;4.25;;
2434;SDS011;1228;51.022;6.764;2022-07-23T13:53:08;6.32;;;3.72;;
2434;SDS011;1228;51.022;6.764;2022-07-23T13:55:39;4.35;;;3.88;;
2434;SDS011;1228;51.022;6.764;2022-07-23T13:58:06;5.25;;;3.72;;
2434;SDS011;1228;51.022;6.764;2022-07-23T14:00:34;3.67;;;3.47;;
2434;SDS011;1228;51.022;6.764;2022-07-23T14:03:02;4.88;;;4.18;;
2434;SDS011;1228;51.022;6.764;2022-07-23T14:05:27;5.40;;;4.78;;
2434;SDS011;1228;51.022;6.764;2022-07-23T14:07:53;5.00;;;4.60;;
2434;SDS011;1228;51.022;6.764;2022-07-23T14:10:20;5.00;;;4.38;;
2434;SDS011;1228;51.022;6.764;2022-07-23T14:12:47;3.97;;;3.72;;
2434;SDS011;1228;51.022;6.764;2022-07-23T14:15:15;4.28;;;3.92;;
2434;SDS011;1228;51.022;6.764;2022-07-23T14:17:42;4.25;;;3.95;;
2434;SDS011;1228;51.022;6.764;2022-07-23T14:20:09;4.65;;;4.05;;
2434;SDS011;1228;51.022;6.764;2022-07-23T14:22:36;4.65;;;3.72;;
2434;SDS011;1228;51.022;6.764;2022-07-23T14:25:02;4.53;;;3.42;;
2434;SDS011;1228;51.022;6.764;2022-07-23T14:27:29;3.65;;;3.35;;
2434;SDS011;1228;51.022;6.764;2022-07-23T14:29:55;3.97;;;3.45;;
2434;SDS011;1228;51.022;6.764;2022-07-23T14:32:21;4.47;;;4.07;;
2434;SDS011;1228;51.022;6.764;2022-07-23T14:34:47;4.55;;;4.25;;
2434;SDS011;1228;51.022;6.764;2022-07-23T14:37:14;4.03;;;3.72;;
2434;SDS011;1228;51.022;6.764;2022-07-23T14:39:40;4.00;;;3.70;;
2434;SDS011;1228;51.022;6.764;2022-07-23T14:42:09;4.47;;;3.90;;
2434;SDS011;1228;51.022;6.764;2022-07-23T14:44:35;4.05;;;3.40;;
2434;SDS011;1228;51.022;6.764;2022-07-23T14:47:02;4.15;;;3.70;;
2434;SDS011;1228;51.022;6.764;2022-07-23T14:49:29;3.88;;;3.63;;
2434;SDS011;1228;51.022;6.764;2022-07-23T14:51:55;4.10;;;3.80;;
2434;SDS011;1228;51.022;6.764;2022-07-23T14:54:21;3.50;;;3.30;;
2434;SDS011;1228;51.022;6.764;2022-07-23T14:56:47;4.20;;;3.85;;
2434;SDS011;1228;51.022;6.764;2022-07-23T14:59:13;3.90;;;3.70;;
2434;SDS011;1228;51.022;6.764;2022-07-23T15:01:39;3.88;;;3.60;;
2434;SDS011;1228;51.022;6.764;2022-07-23T15:04:05;5.50;;;3.80;;
2434;SDS011;1228;51.022;6.764;2022-07-23T15:06:31;4.40;;;3.85;;
2434;SDS011;1228;51.022;6.764;2022-07-23T15:08:58;4.25;;;3.88;;
2434;SDS011;1228;51.022;6.764;2022-07-23T15:11:25;4.05;;;3.75;;
2434;SDS011;1228;51.022;6.764;2022-07-23T15:13:56;4.50;;;4.20;;
2434;SDS011;1228;51.022;6.764;2022-07-23T15:16:21;4.45;;;3.53;;
2434;SDS011;1228;51.022;6.764;2022-07-23T15:18:47;5.03;;;4.53;;
2434;SDS011;1228;51.022;6.764;2022-07-23T15:21:13;4.60;;;4.03;;
2434;SDS011;1228;51.022;6.764;2022-07-23T15:23:38;4.35;;;4.05;;
2434;SDS011;1228;51.022;6.764;2022-07-23T15:26:05;5.10;;;4.55;;
2434;SDS011;1228;51.022;6.764;2022-07-23T15:28:32;4.68;;;4.00;;
2434;SDS011;1228;51.022;6.764;2022-07-23T15:30:58;4.40;;;3.95;;
2434;SDS011;1228;51.022;6.764;2022-07-23T15:33:24;4.32;;;3.92;;
2434;SDS011;1228;51.022;6.764;2022-07-23T15:35:49;4.57;;;4.18;;
2434;SDS011;1228;51.022;6.764;2022-07-23T15:38:17;4.45;;;4.13;;
2434;SDS011;1228;51.022;6.764;2022-07-23T15:40:43;4.20;;;3.90;;
2434;SDS011;1228;51.022;6.764;2022-07-23T15:43:08;5.05;;;4.63;;
2434;SDS011;1228;51.022;6.764;2022-07-23T15:45:34;5.18;;;4.60;;
2434;SDS011;1228;51.022;6.764;2022-07-23T15:48:00;10.13;;;4.03;;
2434;SDS011;1228;51.022;6.764;2022-07-23T15:50:25;4.00;;;3.80;;
2434;SDS011;1228;51.022;6.764;2022-07-23T15:52:51;4.57;;;4.03;;
2434;SDS011;1228;51.022;6.764;2022-07-23T15:55:16;4.55;;;4.18;;